Time;durP1;ratioP1;P1;durP2;ratioP2;P2;SDS_P1;SDS_P2;PMS_P1;PMS_P2;Temp;Humidity;BMP_temperature;BMP_pressure;BME280_temperature;BME280_humidity;BME280_pressure;Samples;Min_cycle;Max_cycle;Signal;HPM_P1;HPM_P2
2022/10/25 00:00:56;;;;;;;;;;;;;;;15.58;100.00;100116.19;3055173;19;20333;-50
2022/10/25 00:01:57;;;;;;;;;;;;;;;15.58;100.00;100121.56;3055842;19;19944;-52
2022/10/25 00:03:02;;;;;;;;;;;;;;;15.58;100.00;100110.81;3055490;19;19936;-52
2022/10/25 00:04:04;;;;;;;;;;;;;;;15.55;100.00;100100.31;3055373;19;20333;-49
2022/10/25 00:05:08;;;;;;;;;;;;;;;15.56;100.00;100110.94;3056319;19;19918;-50
2022/10/25 00:06:10;;;;;;;;;;;;;;;15.55;100.00;100105.69;3056496;19;19940;-51
2022/10/25 00:07:15;;;;;;;;;;;;;;;15.55;100.00;100105.69;3056635;19;19953;-49
2022/10/25 00:08:17;;;;;;;;;;;;;;;15.54;100.00;100098.56;3055432;19;19944;-51
2022/10/25 00:09:21;;;;;;;;;;;;;;;15.55;100.00;100111.06;3056524;19;20049;-49
2022/10/25 00:10:23;;;;;;;;;;;;;;;15.54;100.00;100112.03;3056406;19;19915;-50
2022/10/25 00:11:29;;;;;;;;;;;;;;;15.49;100.00;100099.81;3056630;19;19968;-50
2022/10/25 00:12:31;;;;;;;;;;;;;;;15.54;100.00;100114.72;3056123;19;19989;-51
2022/10/25 00:13:35;;;;;;;;;;;;;;;15.53;100.00;100118.38;3056248;19;20018;-49
2022/10/25 00:14:37;;;;;;;;;;;;;;;15.53;100.00;100115.69;3055945;19;19918;-50
2022/10/25 00:15:42;;;;;;;;;;;;;;;15.49;100.00;100107.88;3056540;19;19918;-50
2022/10/25 00:16:43;;;;;;;;;;;;;;;15.50;100.00;100106.91;3055103;19;19935;-50
2022/10/25 00:17:48;;;;;;;;;;;;;;;15.50;100.00;100109.59;3055539;19;19994;-50
2022/10/25 00:18:50;;;;;;;;;;;;;;;15.48;100.00;100108.88;3055757;19;19992;-49
2022/10/25 00:19:54;;;;;;;;;;;;;;;15.48;100.00;100111.56;3056214;19;19915;-49
2022/10/25 00:20:59;;;;;;;;;;;;;;;15.48;100.00;100100.81;3055921;19;19923;-50
2022/10/25 00:22:01;;;;;;;;;;;;;;;15.49;100.00;100105.19;3056335;19;19945;-49
2022/10/25 00:23:05;;;;;;;;;;;;;;;15.48;100.00;100105.34;3055946;19;19973;-50
2022/10/25 00:24:09;;;;;;;;;;;;;;;15.50;100.00;100106.91;3056231;19;19980;-50
2022/10/25 00:25:13;;;;;;;;;;;;;;;15.50;100.00;100104.22;3055914;19;20293;-50
2022/10/25 00:26:15;;;;;;;;;;;;;;;15.50;100.00;100109.59;3056315;19;20345;-50
2022/10/25 00:27:19;;;;;;;;;;;;;;;15.44;100.00;100104.78;3055887;19;19919;-50
2022/10/25 00:28:21;;;;;;;;;;;;;;;15.48;100.00;100105.34;3055952;19;20010;-50
2022/10/25 00:29:25;;;;;;;;;;;;;;;15.47;100.00;100100.94;3056078;19;20296;-50
2022/10/25 00:30:27;;;;;;;;;;;;;;;15.48;100.00;100106.19;3056249;19;19923;-49
2022/10/25 00:31:32;;;;;;;;;;;;;;;15.48;100.00;100114.25;3055991;19;19915;-50
2022/10/25 00:32:33;;;;;;;;;;;;;;;15.47;100.00;100109.84;3056199;19;19919;-50
2022/10/25 00:33:38;;;;;;;;;;;;;;;15.48;100.00;100098.13;3055273;19;19941;-50
2022/10/25 00:34:40;;;;;;;;;;;;;;;15.50;100.00;100103.38;3056135;19;20349;-49
2022/10/25 00:35:44;;;;;;;;;;;;;;;15.49;100.00;100107.88;3055940;19;19939;-50
2022/10/25 00:36:46;;;;;;;;;;;;;;;15.64;100.00;100102.19;3055992;19;20242;-49
2022/10/25 00:37:51;;;;;;;;;;;;;;;15.67;100.00;100105.47;3055721;19;20654;-49
2022/10/25 00:38:53;;;;;;;;;;;;;;;15.56;100.00;100099.34;3055955;19;19978;-50
2022/10/25 00:39:57;;;;;;;;;;;;;;;15.55;100.00;100105.69;3055876;19;19915;-50
2022/10/25 00:40:59;;;;;;;;;;;;;;;15.70;100.00;100098.94;3056066;19;20314;-50
2022/10/25 00:42:04;;;;;;;;;;;;;;;15.73;100.00;100095.97;3055762;19;19939;-50
2022/10/25 00:43:07;;;;;;;;;;;;;;;15.71;100.00;100100.63;3055817;19;19930;-50
2022/10/25 00:44:30;;;;;;;;;;;;;;;15.71;100.00;100108.72;3055679;19;19952;-50
2022/10/25 00:45:35;;;;;;;;;;;;;;;15.63;100.00;100113.94;3055982;19;20145;-50
2022/10/25 00:46:36;;;;;;;;;;;;;;;15.57;100.00;100109.09;3055758;19;19954;-50
2022/10/25 00:47:47;;;;;;;;;;;;;;;15.56;100.00;100102.03;3054921;19;19919;-50
2022/10/25 00:48:49;;;;;;;;;;;;;;;15.56;100.00;100112.78;3054403;19;19942;-50
2022/10/25 00:49:53;;;;;;;;;;;;;;;15.72;100.00;100110.41;3055925;19;20313;-50
2022/10/25 00:50:55;;;;;;;;;;;;;;;15.75;100.00;100112.84;3055757;19;20446;-50
2022/10/25 00:52:00;;;;;;;;;;;;;;;15.76;100.00;100115.41;3056034;19;19922;-50
2022/10/25 00:53:09;;;;;;;;;;;;;;;15.77;100.00;100106.34;3055047;19;19933;-50
2022/10/25 00:54:14;;;;;;;;;;;;;;;15.79;100.00;100103.50;3054782;19;20349;-50
2022/10/25 00:55:17;;;;;;;;;;;;;;;15.78;100.00;100091.91;3054940;19;19922;-50
2022/10/25 00:56:21;;;;;;;;;;;;;;;15.81;100.00;100096.16;3054744;19;19919;-50
2022/10/25 00:57:28;;;;;;;;;;;;;;;15.81;100.00;100098.84;3055123;19;19915;-50
2022/10/25 00:58:33;;;;;;;;;;;;;;;15.83;100.00;100094.16;3055649;19;19919;-50
2022/10/25 00:59:35;;;;;;;;;;;;;;;15.83;100.00;100096.84;3054971;19;19941;-51
2022/10/25 01:00:39;;;;;;;;;;;;;;;15.84;100.00;100101.25;3053759;19;19922;-50
2022/10/25 01:01:41;;;;;;;;;;;;;;;15.84;100.00;100104.78;3055831;19;19915;-50
2022/10/25 01:02:45;;;;;;;;;;;;;;;15.84;100.00;100104.78;3055132;19;19919;-49
2022/10/25 01:03:50;;;;;;;;;;;;;;;15.87;100.00;100106.34;3055660;19;19942;-49
2022/10/25 01:04:51;;;;;;;;;;;;;;;15.85;100.00;100106.50;3054690;19;19934;-50
2022/10/25 01:05:56;;;;;;;;;;;;;;;15.84;100.00;100096.72;3055213;19;19949;-49
2022/10/25 01:06:58;;;;;;;;;;;;;;;15.83;100.00;100113.84;3055578;19;19927;-52
2022/10/25 01:08:02;;;;;;;;;;;;;;;15.84;100.00;100106.63;3055759;19;19935;-50
2022/10/25 01:09:07;;;;;;;;;;;;;;;15.82;100.00;100105.91;3053989;19;19915;-50
2022/10/25 01:10:09;;;;;;;;;;;;;;;15.82;100.00;100113.97;3055109;19;19930;-50
2022/10/25 01:11:13;;;;;;;;;;;;;;;15.78;100.00;100112.56;3054476;19;19929;-50
2022/10/25 01:12:15;;;;;;;;;;;;;;;15.77;100.00;100110.88;3054418;19;19932;-50
2022/10/25 01:13:19;;;;;;;;;;;;;;;15.75;100.00;100118.22;3055191;19;19923;-50
2022/10/25 01:14:21;;;;;;;;;;;;;;;15.72;100.00;100108.56;3055621;19;19931;-50
2022/10/25 01:15:26;;;;;;;;;;;;;;;15.74;100.00;100108.44;3054305;19;19936;-50
2022/10/25 01:16:33;;;;;;;;;;;;;;;15.73;100.00;100110.28;3054343;19;20264;-50
2022/10/25 01:17:53;;;;;;;;;;;;;;;15.69;100.00;100100.81;3054361;19;19942;-50
2022/10/25 01:18:57;;;;;;;;;;;;;;;15.69;100.00;100108.88;3054487;19;19919;-49
2022/10/25 01:20:08;;;;;;;;;;;;;;;15.70;100.00;100115.94;3054405;19;19922;-50
2022/10/25 01:21:21;;;;;;;;;;;;;;;15.68;100.00;100111.69;3054724;19;19915;-51
2022/10/25 01:22:28;;;;;;;;;;;;;;;15.68;100.00;100103.63;3054686;19;19954;-50
2022/10/25 01:23:32;;;;;;;;;;;;;;;15.67;100.00;100112.69;3054001;19;19923;-50
2022/10/25 01:24:49;;;;;;;;;;;;;;;15.66;100.00;100098.38;3054645;19;19986;-49
2022/10/25 01:25:56;;;;;;;;;;;;;;;15.66;100.00;100108.28;3055240;19;19929;-50
2022/10/25 01:27:05;;;;;;;;;;;;;;;15.65;100.00;100106.56;3055671;19;19926;-50
2022/10/25 01:28:11;;;;;;;;;;;;;;;15.65;100.00;100106.56;3054139;19;20312;-50
2022/10/25 01:29:25;;;;;;;;;;;;;;;15.64;100.00;100104.88;3054443;19;19923;-50
2022/10/25 01:30:46;;;;;;;;;;;;;;;15.65;100.00;100117.34;3055405;19;19993;-50
2022/10/25 01:31:50;;;;;;;;;;;;;;;15.64;100.00;100110.25;3055328;19;19954;-49
2022/10/25 01:32:54;;;;;;;;;;;;;;;15.65;100.00;100107.44;3054631;19;20254;-50
2022/10/25 01:34:18;;;;;;;;;;;;;;;15.63;100.00;100114.78;3054500;19;20208;-50
2022/10/25 01:35:23;;;;;;;;;;;;;;;15.61;100.00;100107.81;3055632;19;19982;-50
2022/10/25 01:36:46;;;;;;;;;;;;;;;15.59;100.00;100117.88;3054272;19;20713;-50
2022/10/25 01:37:51;;;;;;;;;;;;;;;15.53;100.00;100113.00;3055006;19;20272;-49
2022/10/25 01:38:58;;;;;;;;;;;;;;;15.48;100.00;100116.09;3055106;19;20627;-49
2022/10/25 01:39:59;;;;;;;;;;;;;;;15.44;100.00;100114.69;3054342;19;19918;-51
2022/10/25 01:41:13;;;;;;;;;;;;;;;15.40;100.00;100114.09;3054556;19;20340;-49
2022/10/25 01:42:34;;;;;;;;;;;;;;;15.38;100.00;100109.81;3054318;19;19924;-49
2022/10/25 01:43:43;;;;;;;;;;;;;;;15.33;100.00;100110.25;3054440;19;19915;-50
2022/10/25 01:45:06;;;;;;;;;;;;;;;15.31;100.00;100109.53;3054417;19;19927;-50
2022/10/25 01:46:17;;;;;;;;;;;;;;;15.30;100.00;100109.66;3053192;19;20352;-51
2022/10/25 01:47:31;;;;;;;;;;;;;;;15.27;100.00;100108.06;3054766;19;19937;-49
2022/10/25 01:48:33;;;;;;;;;;;;;;;15.26;100.00;100111.75;3053943;19;19922;-50
2022/10/25 01:49:47;;;;;;;;;;;;;;;15.25;100.00;100114.56;3053757;19;19923;-49
2022/10/25 01:50:48;;;;;;;;;;;;;;;15.25;100.00;100110.03;3054202;19;19915;-49
2022/10/25 01:51:53;;;;;;;;;;;;;;;15.25;100.00;100099.28;3055319;19;20337;-50
2022/10/25 01:52:54;;;;;;;;;;;;;;;15.26;100.00;100101.00;3055014;19;20237;-50
2022/10/25 01:53:59;;;;;;;;;;;;;;;15.26;100.00;100094.75;3055457;19;20272;-49
2022/10/25 01:55:00;;;;;;;;;;;;;;;15.27;100.00;100091.09;3055121;19;20039;-50
2022/10/25 01:56:05;;;;;;;;;;;;;;;15.26;100.00;100101.00;3055632;19;19911;-50
2022/10/25 01:57:27;;;;;;;;;;;;;;;15.28;100.00;100087.41;3055069;19;19930;-49
2022/10/25 01:58:43;;;;;;;;;;;;;;;15.29;100.00;100084.59;3053494;19;19942;-50
2022/10/25 01:59:51;;;;;;;;;;;;;;;15.31;100.00;100093.38;3053472;19;20385;-50
2022/10/25 02:01:00;;;;;;;;;;;;;;;15.33;100.00;100093.25;3053585;19;19919;-50
2022/10/25 02:02:19;;;;;;;;;;;;;;;15.33;100.00;100085.19;3054531;19;20011;-50
2022/10/25 02:03:20;;;;;;;;;;;;;;;15.36;100.00;100091.13;3053832;19;19925;-50
2022/10/25 02:04:28;;;;;;;;;;;;;;;15.36;100.00;100091.13;3054391;19;19926;-49
2022/10/25 02:05:39;;;;;;;;;;;;;;;15.37;100.00;100086.59;3054007;19;19923;-50
2022/10/25 02:06:43;;;;;;;;;;;;;;;15.38;100.00;100086.47;3054033;19;20378;-50
2022/10/25 02:07:57;;;;;;;;;;;;;;;15.38;100.00;100091.84;3055111;19;19944;-49
2022/10/25 02:09:02;;;;;;;;;;;;;;;15.38;100.00;100086.47;3055357;19;19923;-50
2022/10/25 02:10:19;;;;;;;;;;;;;;;15.39;100.00;100088.19;3054459;19;19929;-50
2022/10/25 02:11:23;;;;;;;;;;;;;;;15.38;100.00;100082.94;3054131;19;19934;-49
2022/10/25 02:12:30;;;;;;;;;;;;;;;15.38;100.00;100093.69;3054422;19;20003;-49
2022/10/25 02:13:44;;;;;;;;;;;;;;;15.38;100.00;100083.78;3053750;19;19929;-50
2022/10/25 02:14:56;;;;;;;;;;;;;;;15.38;100.00;100078.41;3053970;19;19923;-50
2022/10/25 02:16:01;;;;;;;;;;;;;;;15.37;100.00;100082.09;3054149;19;20359;-49
2022/10/25 02:17:13;;;;;;;;;;;;;;;15.37;100.00;100087.47;3054651;19;19926;-50
2022/10/25 02:18:19;;;;;;;;;;;;;;;15.38;100.00;100082.94;3054633;19;19915;-50
2022/10/25 02:19:22;;;;;;;;;;;;;;;15.38;100.00;100081.09;3054435;19;19919;-50
2022/10/25 02:20:27;;;;;;;;;;;;;;;15.39;100.00;100080.13;3054520;19;20015;-50
2022/10/25 02:21:30;;;;;;;;;;;;;;;15.38;100.00;100082.94;3054490;19;19923;-50
2022/10/25 02:22:34;;;;;;;;;;;;;;;15.38;100.00;100067.66;3054144;19;19927;-50
2022/10/25 02:23:36;;;;;;;;;;;;;;;15.38;100.00;100083.78;3054691;19;19998;-50
2022/10/25 02:24:41;;;;;;;;;;;;;;;15.38;100.00;100078.41;3056099;19;19927;-51
2022/10/25 02:25:43;;;;;;;;;;;;;;;15.38;100.00;100080.25;3058014;19;19927;-51
2022/10/25 02:26:48;;;;;;;;;;;;;;;15.38;100.00;100083.78;3056669;19;19944;-50
2022/10/25 02:28:13;;;;;;;;;;;;;;;15.38;100.00;100078.41;3057086;19;20239;-50
2022/10/25 02:29:15;;;;;;;;;;;;;;;15.38;100.00;100081.09;3057762;19;19923;-50
2022/10/25 02:30:19;;;;;;;;;;;;;;;15.38;100.00;100073.03;3055786;19;20355;-49
2022/10/25 02:31:21;;;;;;;;;;;;;;;15.38;100.00;100083.78;3057152;19;20316;-50
2022/10/25 02:32:26;;;;;;;;;;;;;;;15.40;100.00;100081.81;3056691;19;19980;-50
2022/10/25 02:33:27;;;;;;;;;;;;;;;15.40;100.00;100087.19;3057010;19;19914;-50
2022/10/25 02:34:32;;;;;;;;;;;;;;;15.41;100.00;100088.91;3056906;19;19915;-50
2022/10/25 02:35:34;;;;;;;;;;;;;;;15.41;100.00;100086.22;3058024;19;20043;-50
2022/10/25 02:36:38;;;;;;;;;;;;;;;15.43;100.00;100091.47;3057673;19;19926;-49
2022/10/25 02:37:40;;;;;;;;;;;;;;;15.44;100.00;100077.88;3058126;19;20305;-50
2022/10/25 02:38:45;;;;;;;;;;;;;;;15.44;100.00;100088.63;3057359;19;20235;-50
2022/10/25 02:39:47;;;;;;;;;;;;;;;15.45;100.00;100078.72;3057746;19;19990;-50
2022/10/25 02:40:51;;;;;;;;;;;;;;;15.46;100.00;100075.03;3056753;19;19918;-50
2022/10/25 02:41:53;;;;;;;;;;;;;;;15.46;100.00;100086.63;3056871;19;20293;-49
2022/10/25 02:42:57;;;;;;;;;;;;;;;15.47;100.00;100082.97;3057391;19;20261;-50
2022/10/25 02:43:59;;;;;;;;;;;;;;;15.42;100.00;100082.53;3057308;19;19923;-50
2022/10/25 02:45:03;;;;;;;;;;;;;;;15.46;100.00;100092.03;3057502;19;19964;-50
2022/10/25 02:46:06;;;;;;;;;;;;;;;15.45;100.00;100090.34;3055042;19;20029;-50
2022/10/25 02:47:11;;;;;;;;;;;;;;;15.45;100.00;100090.34;3056750;19;19941;-50
2022/10/25 02:48:13;;;;;;;;;;;;;;;15.44;100.00;100094.03;3057792;19;19922;-50
2022/10/25 02:49:17;;;;;;;;;;;;;;;15.43;100.00;100091.47;3056635;19;19926;-51
2022/10/25 02:50:19;;;;;;;;;;;;;;;15.43;100.00;100089.63;3059005;19;19925;-50
2022/10/25 02:51:23;;;;;;;;;;;;;;;15.42;100.00;100087.91;3058643;19;19926;-51
2022/10/25 02:52:25;;;;;;;;;;;;;;;15.41;100.00;100083.53;3057781;19;19919;-50
2022/10/25 02:53:29;;;;;;;;;;;;;;;15.41;100.00;100093.44;3057344;19;19931;-50
2022/10/25 02:54:31;;;;;;;;;;;;;;;15.38;100.00;100083.78;3057317;19;19927;-50
2022/10/25 02:55:35;;;;;;;;;;;;;;;15.36;100.00;100085.75;3057456;19;19923;-50
2022/10/25 02:56:37;;;;;;;;;;;;;;;15.36;100.00;100085.75;3057568;19;19926;-50
2022/10/25 02:57:41;;;;;;;;;;;;;;;15.33;100.00;100080.66;3057635;19;19923;-50
2022/10/25 02:58:43;;;;;;;;;;;;;;;15.32;100.00;100080.81;3057045;19;19964;-50
2022/10/25 02:59:48;;;;;;;;;;;;;;;15.30;100.00;100075.56;3057191;19;19918;-50
2022/10/25 03:00:50;;;;;;;;;;;;;;;15.31;100.00;100073.72;3057574;19;19926;-50
2022/10/25 03:01:54;;;;;;;;;;;;;;;15.29;100.00;100068.47;3057318;19;20289;-51
2022/10/25 03:02:56;;;;;;;;;;;;;;;15.29;100.00;100075.69;3057251;19;19919;-50
2022/10/25 03:04:00;;;;;;;;;;;;;;;15.28;100.00;100072.13;3056960;19;20451;-49
2022/10/25 03:05:02;;;;;;;;;;;;;;;15.28;100.00;100072.13;3057457;19;19915;-49
2022/10/25 03:06:07;;;;;;;;;;;;;;;15.27;100.00;100065.06;3057157;19;19919;-51
2022/10/25 03:07:08;;;;;;;;;;;;;;;15.25;100.00;100077.78;3057550;19;19930;-50
2022/10/25 03:08:13;;;;;;;;;;;;;;;15.24;100.00;100065.31;3057142;19;19923;-50
2022/10/25 03:09:17;;;;;;;;;;;;;;;15.24;100.00;100076.06;3057452;19;20452;-50
2022/10/25 03:10:19;;;;;;;;;;;;;;;15.21;100.00;100072.81;3057009;19;19922;-49
2022/10/25 03:11:23;;;;;;;;;;;;;;;15.19;100.00;100066.72;3057394;19;19915;-50
2022/10/25 03:12:25;;;;;;;;;;;;;;;15.14;100.00;100065.28;3057016;19;19925;-50
2022/10/25 03:13:29;;;;;;;;;;;;;;;15.10;100.00;100069.22;3057747;19;19923;-50
2022/10/25 03:14:31;;;;;;;;;;;;;;;15.08;100.00;100071.22;3057328;19;19923;-49
2022/10/25 03:15:36;;;;;;;;;;;;;;;15.07;100.00;100069.50;3057390;19;19926;-51
2022/10/25 03:16:37;;;;;;;;;;;;;;;15.07;100.00;100068.66;3057003;19;20334;-49
2022/10/25 03:17:42;;;;;;;;;;;;;;;15.07;100.00;100063.28;3057474;19;19919;-50
2022/10/25 03:18:44;;;;;;;;;;;;;;;15.06;100.00;100061.56;3056939;19;19923;-49
2022/10/25 03:19:48;;;;;;;;;;;;;;;15.08;100.00;100059.59;3057465;19;20329;-50
2022/10/25 03:20:50;;;;;;;;;;;;;;;15.09;100.00;100061.31;3057063;19;19927;-50
2022/10/25 03:21:54;;;;;;;;;;;;;;;15.10;100.00;100060.28;3057379;19;19936;-50
2022/10/25 03:22:56;;;;;;;;;;;;;;;15.10;100.00;100063.84;3056723;19;20518;-50
2022/10/25 03:24:01;;;;;;;;;;;;;;;15.10;100.00;100062.97;3057589;19;19934;-49
2022/10/25 03:25:02;;;;;;;;;;;;;;;15.14;100.00;100069.81;3056937;19;19964;-50
2022/10/25 03:26:07;;;;;;;;;;;;;;;15.14;100.00;100059.91;3057351;19;20308;-50
2022/10/25 03:27:09;;;;;;;;;;;;;;;15.16;100.00;100067.84;3056885;19;19919;-50
2022/10/25 03:28:13;;;;;;;;;;;;;;;15.16;100.00;100057.09;3056061;19;19919;-50
2022/10/25 03:29:15;;;;;;;;;;;;;;;15.18;100.00;100071.25;3056292;19;19934;-50
2022/10/25 03:30:20;;;;;;;;;;;;;;;15.19;100.00;100067.59;3057159;19;19927;-50
2022/10/25 03:31:22;;;;;;;;;;;;;;;15.19;100.00;100056.81;3055616;19;19935;-51
2022/10/25 03:32:26;;;;;;;;;;;;;;;15.21;100.00;100060.25;3056105;19;19949;-49
2022/10/25 03:33:28;;;;;;;;;;;;;;;15.22;100.00;100061.91;3056374;19;19918;-49
2022/10/25 03:34:52;;;;;;;;;;;;;;;15.23;100.00;100063.63;3057159;19;20331;-50
2022/10/25 03:35:54;;;;;;;;;;;;;;;15.24;100.00;100067.16;3056742;19;19945;-50
2022/10/25 03:36:59;;;;;;;;;;;;;;;15.24;100.00;100070.69;3056685;19;20379;-50
2022/10/25 03:38:01;;;;;;;;;;;;;;;15.24;100.00;100064.47;3056809;19;19974;-50
2022/10/25 03:39:05;;;;;;;;;;;;;;;15.22;100.00;100061.91;3056513;19;19990;-50
2022/10/25 03:40:07;;;;;;;;;;;;;;;15.22;100.00;100061.91;3056859;19;20265;-50
2022/10/25 03:41:11;;;;;;;;;;;;;;;15.22;100.00;100064.59;3056134;19;19934;-50
2022/10/25 03:42:13;;;;;;;;;;;;;;;15.22;100.00;100066.44;3056548;19;20254;-50
2022/10/25 03:43:17;;;;;;;;;;;;;;;15.20;100.00;100069.28;3056601;19;20324;-50
2022/10/25 03:44:19;;;;;;;;;;;;;;;15.18;100.00;100071.25;3056829;19;20476;-51
2022/10/25 03:45:24;;;;;;;;;;;;;;;15.17;100.00;100066.84;3056725;19;19923;-49
2022/10/25 03:46:28;;;;;;;;;;;;;;;15.16;100.00;100062.47;3057034;19;19925;-50
2022/10/25 03:47:30;;;;;;;;;;;;;;;15.14;100.00;100059.06;3056674;19;19987;-50
2022/10/25 03:48:34;;;;;;;;;;;;;;;15.14;100.00;100056.38;3056680;19;19915;-49
2022/10/25 03:49:36;;;;;;;;;;;;;;;15.13;100.00;100055.50;3056577;19;19927;-50
2022/10/25 03:50:40;;;;;;;;;;;;;;;15.16;100.00;100056.25;3058144;19;19915;-49
2022/10/25 03:51:42;;;;;;;;;;;;;;;15.16;100.00;100065.16;3056732;19;20280;-50
2022/10/25 03:52:47;;;;;;;;;;;;;;;15.16;100.00;100061.59;3056677;19;19986;-49
2022/10/25 03:53:49;;;;;;;;;;;;;;;15.17;100.00;100058.78;3056203;19;20314;-50
2022/10/25 03:54:53;;;;;;;;;;;;;;;15.18;100.00;100060.50;3056778;19;19923;-50
2022/10/25 03:55:58;;;;;;;;;;;;;;;15.19;100.00;100061.34;3057602;19;19946;-50
2022/10/25 03:57:00;;;;;;;;;;;;;;;15.18;100.00;100060.50;3056842;19;19934;-50
2022/10/25 03:58:04;;;;;;;;;;;;;;;15.19;100.00;100054.13;3055908;19;19927;-49
2022/10/25 03:59:06;;;;;;;;;;;;;;;15.19;100.00;100055.97;3057115;19;19933;-50
2022/10/25 04:00:11;;;;;;;;;;;;;;;15.20;100.00;100057.69;3057327;19;20353;-50
2022/10/25 04:01:13;;;;;;;;;;;;;;;15.20;100.00;100052.31;3056599;19;20342;-50
2022/10/25 04:02:17;;;;;;;;;;;;;;;15.21;100.00;100059.38;3056173;19;20401;-50
2022/10/25 04:03:19;;;;;;;;;;;;;;;15.20;100.00;100057.69;3056625;19;19951;-50
2022/10/25 04:04:23;;;;;;;;;;;;;;;15.19;100.00;100059.50;3057115;19;19919;-50
2022/10/25 04:05:25;;;;;;;;;;;;;;;15.19;100.00;100062.19;3055831;19;19915;-50
2022/10/25 04:06:29;;;;;;;;;;;;;;;15.16;100.00;100054.41;3056150;19;19922;-50
2022/10/25 04:07:31;;;;;;;;;;;;;;;15.17;100.00;100061.47;3056684;19;19942;-50
2022/10/25 04:08:36;;;;;;;;;;;;;;;15.16;100.00;100051.72;3057169;19;19926;-50
2022/10/25 04:09:37;;;;;;;;;;;;;;;15.14;100.00;100053.69;3058431;19;19930;-49
2022/10/25 04:10:42;;;;;;;;;;;;;;;15.12;100.00;100056.50;3057376;19;20329;-50
2022/10/25 04:11:44;;;;;;;;;;;;;;;15.12;100.00;100055.66;3055850;19;20337;-50
2022/10/25 04:12:48;;;;;;;;;;;;;;;15.11;100.00;100059.31;3056043;19;19914;-51
2022/10/25 04:14:12;;;;;;;;;;;;;;;15.10;100.00;100052.22;3056342;19;19953;-50
2022/10/25 04:15:14;;;;;;;;;;;;;;;15.09;100.00;100056.75;3056305;19;19919;-49
2022/10/25 04:16:18;;;;;;;;;;;;;;;15.10;100.00;100058.47;3054511;19;20296;-50
2022/10/25 04:17:20;;;;;;;;;;;;;;;15.09;100.00;100055.94;3056188;19;20707;-49
2022/10/25 04:18:25;;;;;;;;;;;;;;;15.10;100.00;100066.53;3056156;19;19923;-50
2022/10/25 04:19:26;;;;;;;;;;;;;;;15.09;100.00;100058.63;3057320;19;19928;-49
2022/10/25 04:20:31;;;;;;;;;;;;;;;15.10;100.00;100057.59;3055964;19;20506;-50
2022/10/25 04:21:33;;;;;;;;;;;;;;;15.09;100.00;100056.75;3056183;19;19930;-50
2022/10/25 04:22:37;;;;;;;;;;;;;;;15.09;100.00;100050.56;3056208;19;19935;-50
2022/10/25 04:23:39;;;;;;;;;;;;;;;15.08;100.00;100049.72;3055978;19;19923;-50
2022/10/25 04:24:43;;;;;;;;;;;;;;;15.09;100.00;100055.94;3056100;19;19922;-50
2022/10/25 04:25:45;;;;;;;;;;;;;;;15.08;100.00;100059.59;3056668;19;20018;-50
2022/10/25 04:26:50;;;;;;;;;;;;;;;15.06;100.00;100056.19;3055908;19;19923;-50
2022/10/25 04:27:51;;;;;;;;;;;;;;;15.05;100.00;100054.50;3056066;19;19923;-50
2022/10/25 04:28:57;;;;;;;;;;;;;;;15.04;100.00;100059.00;3055955;19;19979;-49
2022/10/25 04:29:58;;;;;;;;;;;;;;;15.04;100.00;100052.78;3056332;19;19921;-50
2022/10/25 04:31:04;;;;;;;;;;;;;;;15.01;100.00;100047.66;3056538;19;20480;-50
2022/10/25 04:32:05;;;;;;;;;;;;;;;15.04;100.00;100052.78;3055295;19;19919;-50
2022/10/25 04:33:10;;;;;;;;;;;;;;;15.04;100.00;100053.63;3055296;19;20638;-50
2022/10/25 04:34:12;;;;;;;;;;;;;;;15.04;100.00;100050.09;3057371;19;20257;-50
2022/10/25 04:35:16;;;;;;;;;;;;;;;15.04;100.00;100052.78;3055412;19;20257;-49
2022/10/25 04:36:18;;;;;;;;;;;;;;;15.04;100.00;100050.94;3056202;19;19934;-50
2022/10/25 04:37:22;;;;;;;;;;;;;;;15.02;100.00;100055.59;3056066;19;19939;-50
2022/10/25 04:38:24;;;;;;;;;;;;;;;15.01;100.00;100043.16;3055948;19;19941;-49
2022/10/25 04:39:28;;;;;;;;;;;;;;;15.00;100.00;100046.81;3055366;19;20274;-50
2022/10/25 04:40:30;;;;;;;;;;;;;;;15.02;100.00;100052.06;3056065;19;19918;-50
2022/10/25 04:41:35;;;;;;;;;;;;;;;15.01;100.00;100044.97;3055691;19;19941;-50
2022/10/25 04:42:36;;;;;;;;;;;;;;;15.00;100.00;100056.72;3056117;19;19931;-50
2022/10/25 04:43:41;;;;;;;;;;;;;;;14.99;100.00;100052.31;3055701;19;19911;-50
2022/10/25 04:44:43;;;;;;;;;;;;;;;14.96;100.00;100056.16;3055918;19;19986;-50
2022/10/25 04:45:47;;;;;;;;;;;;;;;14.91;100.00;100053.00;3055893;19;20356;-49
2022/10/25 04:46:51;;;;;;;;;;;;;;;14.86;100.00;100057.91;3055912;19;19918;-49
2022/10/25 04:47:53;;;;;;;;;;;;;;;14.79;100.00;100059.41;3053992;19;20321;-50
2022/10/25 04:48:58;;;;;;;;;;;;;;;14.74;100.00;100061.63;3055826;19;19918;-49
2022/10/25 04:49:59;;;;;;;;;;;;;;;14.65;100.00;100063.28;3055728;19;20322;-49
2022/10/25 04:51:04;;;;;;;;;;;;;;;14.57;100.00;100065.78;3056122;19;20019;-50
2022/10/25 04:52:06;;;;;;;;;;;;;;;14.49;100.00;100062.06;3055642;19;19922;-50
2022/10/25 04:53:10;;;;;;;;;;;;;;;14.41;100.00;100066.22;3055964;19;19929;-49
2022/10/25 04:54:12;;;;;;;;;;;;;;;14.35;100.00;100061.34;3055544;19;19937;-49
2022/10/25 04:55:16;;;;;;;;;;;;;;;14.28;100.00;100062.81;3056144;19;19937;-50
2022/10/25 04:56:18;;;;;;;;;;;;;;;14.21;100.00;100055.41;3055740;19;19978;-50
2022/10/25 04:57:22;;;;;;;;;;;;;;;14.16;100.00;100061.16;3056030;19;20366;-49
2022/10/25 04:58:25;;;;;;;;;;;;;;;14.10;100.00;100055.47;3055376;19;19919;-50
2022/10/25 04:59:34;;;;;;;;;;;;;;;14.03;100.00;100055.97;3057219;19;20019;-49
2022/10/25 05:00:36;;;;;;;;;;;;;;;13.98;100.00;100063.56;3055253;19;20314;-49
2022/10/25 05:01:40;;;;;;;;;;;;;;;13.94;100.00;100055.88;3056609;19;19926;-50
2022/10/25 05:02:42;;;;;;;;;;;;;;;13.88;100.00;100057.25;3057198;19;19964;-50
2022/10/25 05:03:48;;;;;;;;;;;;;;;13.83;100.00;100059.44;3057290;19;19935;-49
2022/10/25 05:04:49;;;;;;;;;;;;;;;13.79;100.00;100057.13;3056540;19;19938;-50
2022/10/25 05:05:54;;;;;;;;;;;;;;;13.74;100.00;100052.16;3057080;19;19915;-50
2022/10/25 05:06:58;;;;;;;;;;;;;;;13.71;100.00;100055.06;3056798;19;19925;-52
2022/10/25 05:08:00;;;;;;;;;;;;;;;13.68;100.00;100055.31;3012301;19;19926;-50
2022/10/25 05:09:05;;;;;;;;;;;;;;;13.65;100.00;100055.56;3055686;19;19974;-50
2022/10/25 05:10:07;;;;;;;;;;;;;;;13.65;100.00;100055.56;3056884;19;20288;-50
2022/10/25 05:11:12;;;;;;;;;;;;;;;13.66;100.00;100050.06;3055956;19;20337;-49
2022/10/25 05:12:16;;;;;;;;;;;;;;;13.70;100.00;100051.53;3055118;19;20337;-50
2022/10/25 05:13:18;;;;;;;;;;;;;;;13.75;100.00;100051.19;3055378;19;19919;-50
2022/10/25 05:14:22;;;;;;;;;;;;;;;13.80;100.00;100050.78;3055808;19;19926;-49
2022/10/25 05:15:24;;;;;;;;;;;;;;;13.86;100.00;100048.47;3055705;19;19939;-50
2022/10/25 05:16:33;;;;;;;;;;;;;;;13.90;100.00;100054.41;3055779;19;20309;-50
2022/10/25 05:17:35;;;;;;;;;;;;;;;13.93;100.00;100048.81;3055873;19;20014;-49
2022/10/25 05:18:41;;;;;;;;;;;;;;;13.98;100.00;100052.81;3055407;19;19945;-51
2022/10/25 05:19:46;;;;;;;;;;;;;;;14.04;100.00;100051.44;3055775;19;19907;-50
2022/10/25 05:20:57;;;;;;;;;;;;;;;14.07;100.00;100046.69;3055370;19;19926;-50
2022/10/25 05:22:03;;;;;;;;;;;;;;;14.11;100.00;100044.59;3055401;19;19923;-50
2022/10/25 05:23:05;;;;;;;;;;;;;;;14.14;100.00;100051.53;3054866;19;19984;-50
2022/10/25 05:24:09;;;;;;;;;;;;;;;14.15;100.00;100050.56;3055671;19;19914;-50
2022/10/25 05:25:11;;;;;;;;;;;;;;;14.16;100.00;100047.75;3052778;19;20660;-50
2022/10/25 05:26:16;;;;;;;;;;;;;;;14.17;100.00;100051.28;3051985;19;19942;-50
2022/10/25 05:27:21;;;;;;;;;;;;;;;14.16;100.00;100052.25;3054482;19;19926;-50
2022/10/25 05:28:22;;;;;;;;;;;;;;;14.17;100.00;100045.91;3055235;19;19915;-49
2022/10/25 05:29:27;;;;;;;;;;;;;;;14.18;100.00;100059.22;3053673;19;19945;-49